createdAt,value
2019-03-27T09:58:59.752Z,14.31
2019-03-27T10:01:26.524Z,14.41
2019-03-27T10:03:53.441Z,14.48
2019-03-27T10:06:20.231Z,14.54
2019-03-27T10:08:47.003Z,14.42
2019-03-27T10:11:13.900Z,14.75
2019-03-27T10:13:40.723Z,14.47
2019-03-27T10:25:24.021Z,16.35
2019-03-27T10:27:50.873Z,16.46
2019-03-27T10:30:18.427Z,16.15
2019-03-27T10:32:45.301Z,14.77
2019-03-27T10:35:12.222Z,14.98
2019-03-27T10:37:38.988Z,15.31
2019-03-27T10:40:05.826Z,15.36
2019-03-27T10:42:32.706Z,15.65
2019-03-27T10:44:59.674Z,15.29
2019-03-27T10:47:26.791Z,15.22
2019-03-27T10:49:53.481Z,15.80
2019-03-27T10:52:20.243Z,15.07
2019-03-27T10:54:47.025Z,14.96
2019-03-27T10:57:13.875Z,14.95
2019-03-27T10:59:40.672Z,14.57
2019-03-27T11:02:07.634Z,14.89
2019-03-27T11:04:34.598Z,15.18
2019-03-27T11:07:01.942Z,15.46
2019-03-27T11:09:29.091Z,14.96
2019-03-27T11:11:55.872Z,14.79
2019-03-27T11:14:22.597Z,14.77
2019-03-27T11:16:49.375Z,14.98
2019-03-27T11:19:16.290Z,15.15
2019-03-27T11:21:43.201Z,15.39
2019-03-27T11:24:10.563Z,14.89
2019-03-27T11:26:37.377Z,14.81
2019-03-27T11:29:04.233Z,14.70
2019-03-27T11:31:31.339Z,14.59
2019-03-27T11:33:58.132Z,14.82
2019-03-27T11:36:26.248Z,15.04
2019-03-27T11:38:52.989Z,15.05
2019-03-27T11:41:20.282Z,14.39
2019-03-27T11:43:54.611Z,14.90
2019-03-27T11:46:15.880Z,15.00
2019-03-27T11:48:42.732Z,15.67
2019-03-27T11:51:09.559Z,16.10
2019-03-27T11:53:36.503Z,15.11
2019-03-27T11:56:03.613Z,15.52
2019-03-27T11:58:30.547Z,15.42
2019-03-27T12:00:57.369Z,15.08
2019-03-27T12:03:24.185Z,15.48
2019-03-27T12:05:51.123Z,15.49
2019-03-27T12:08:17.911Z,15.27
2019-03-27T12:10:44.782Z,15.33
2019-03-27T12:13:11.554Z,14.93
2019-03-27T12:15:39.299Z,15.24
2019-03-27T12:18:06.971Z,14.40
2019-03-27T12:20:34.399Z,14.33
2019-03-27T12:23:01.143Z,14.56
2019-03-27T12:25:27.927Z,14.25
2019-03-27T12:27:54.763Z,14.25
2019-03-27T12:30:21.685Z,14.66
2019-03-27T12:32:48.455Z,14.94
2019-03-27T12:35:15.197Z,15.11
2019-03-27T12:37:41.945Z,15.29
2019-03-27T12:40:11.915Z,15.22
2019-03-27T12:42:37.402Z,14.95
2019-03-27T12:45:05.361Z,14.99
2019-03-27T12:47:36.942Z,15.30
2019-03-27T12:50:05.653Z,15.57
2019-03-27T12:52:32.439Z,15.31
2019-03-27T12:54:59.159Z,15.34
2019-03-27T12:57:25.877Z,15.37
2019-03-27T12:59:52.637Z,15.12
2019-03-27T13:02:19.339Z,15.27
2019-03-27T13:04:46.211Z,15.36
2019-03-27T13:07:13.189Z,15.44
2019-03-27T13:09:40.019Z,15.79
2019-03-27T13:12:06.781Z,15.35
2019-03-27T13:14:34.112Z,15.51
2019-03-27T13:17:00.933Z,15.13
2019-03-27T13:19:28.207Z,15.01
2019-03-27T13:21:55.047Z,15.13
2019-03-27T13:24:21.755Z,14.72
2019-03-27T13:26:48.665Z,14.76
2019-03-27T13:29:15.425Z,14.81
2019-03-27T13:31:42.201Z,15.14
2019-03-27T13:34:09.101Z,15.16
2019-03-27T13:36:37.279Z,15.02
2019-03-27T13:39:06.420Z,15.31
2019-03-27T13:41:33.331Z,15.55
2019-03-27T13:44:00.199Z,15.63
2019-03-27T13:46:26.961Z,15.22
2019-03-27T13:48:53.945Z,14.65
2019-03-27T13:51:20.939Z,14.71
2019-03-27T13:53:47.821Z,14.92
2019-03-27T13:56:14.714Z,14.94
2019-03-27T13:58:41.518Z,14.85
2019-03-27T14:01:09.059Z,14.32
2019-03-27T14:03:36.618Z,14.74
2019-03-27T14:06:03.390Z,14.82
2019-03-27T14:08:30.512Z,14.23
2019-03-27T14:10:57.400Z,14.02
2019-03-27T14:13:24.154Z,14.22
2019-03-27T14:15:50.957Z,14.05
2019-03-27T14:18:17.868Z,14.49
2019-03-27T14:20:44.717Z,14.57
2019-03-27T14:23:11.499Z,14.75
2019-03-27T14:25:38.334Z,14.06
2019-03-27T14:28:05.472Z,14.47
2019-03-27T14:30:49.187Z,14.55
2019-03-27T14:33:16.137Z,14.58
2019-03-27T14:35:43.010Z,13.96
2019-03-27T14:38:09.814Z,13.82
2019-03-27T14:40:36.590Z,13.61
2019-03-27T14:43:03.600Z,13.61
2019-03-27T14:45:30.546Z,13.85
2019-03-27T14:47:57.406Z,13.51
2019-03-27T14:50:24.353Z,13.82
2019-03-27T14:52:51.133Z,13.25
2019-03-27T14:55:17.921Z,13.65
2019-03-27T14:57:44.669Z,13.72
2019-03-27T15:00:11.666Z,13.21
2019-03-27T15:02:38.780Z,13.24
2019-03-27T15:05:06.361Z,13.12
2019-03-27T15:07:33.203Z,13.01
2019-03-27T15:10:00.151Z,12.49
2019-03-27T15:12:27.430Z,12.64
2019-03-27T15:14:54.147Z,12.91
2019-03-27T15:17:20.991Z,12.59
2019-03-27T15:19:47.980Z,12.07
2019-03-27T15:22:22.234Z,12.36
2019-03-27T15:24:43.405Z,12.13
2019-03-27T15:27:10.254Z,12.13
2019-03-27T15:29:37.075Z,12.53
2019-03-27T15:32:03.828Z,12.62
2019-03-27T15:34:30.736Z,12.76
2019-03-27T15:36:57.635Z,12.67
2019-03-27T15:39:24.825Z,12.59
2019-03-27T15:41:51.729Z,12.29
2019-03-27T15:44:18.484Z,12.36
2019-03-27T15:46:45.365Z,12.36
2019-03-27T15:49:12.152Z,12.42
2019-03-27T15:51:39.082Z,12.17
2019-03-27T15:54:05.860Z,11.97
2019-03-27T15:56:32.763Z,12.04
2019-03-27T15:58:59.503Z,11.91
2019-03-27T16:01:26.286Z,11.90
2019-03-27T16:03:53.283Z,11.91
2019-03-27T16:06:20.115Z,11.84
2019-03-27T16:08:46.934Z,11.77
2019-03-27T16:11:13.863Z,11.69
2019-03-27T16:13:40.636Z,11.73
2019-03-27T16:16:07.580Z,11.78
2019-03-27T16:18:34.482Z,11.77
2019-03-27T16:21:01.346Z,11.70
2019-03-27T16:23:32.344Z,11.15
2019-03-27T16:25:59.203Z,11.06
2019-03-27T16:28:25.935Z,11.18
2019-03-27T16:30:52.737Z,10.97
2019-03-27T16:33:19.544Z,10.84
2019-03-27T16:35:46.465Z,10.68
2019-03-27T16:38:13.340Z,10.76
2019-03-27T16:40:45.873Z,10.67
2019-03-27T16:43:12.935Z,10.66
2019-03-27T16:45:39.743Z,10.64
2019-03-27T16:48:06.720Z,10.60
2019-03-27T16:50:33.580Z,10.52
2019-03-27T16:53:03.715Z,10.41
2019-03-27T16:55:29.140Z,10.29
2019-03-27T16:57:55.926Z,10.28
2019-03-27T17:00:22.752Z,10.29
2019-03-27T17:02:49.623Z,10.24
2019-03-27T17:05:16.536Z,10.17
2019-03-27T17:07:43.342Z,10.02
2019-03-27T17:10:10.117Z,10.08
2019-03-27T17:12:36.970Z,10.03
2019-03-27T17:15:04.951Z,10.06
2019-03-27T17:17:31.817Z,10.00
2019-03-27T17:20:00.792Z,10.02
2019-03-27T17:22:27.836Z,9.93
2019-03-27T17:24:56.025Z,9.80
2019-03-27T17:27:23.301Z,9.82
2019-03-27T17:29:50.044Z,9.75
2019-03-27T17:32:16.776Z,9.67
2019-03-27T17:34:43.556Z,9.58
2019-03-27T17:37:10.265Z,9.47
2019-03-27T17:39:37.092Z,9.42
2019-03-27T17:42:03.846Z,9.39
2019-03-27T17:44:30.636Z,9.34
2019-03-27T17:46:57.379Z,9.34
2019-03-27T17:49:24.283Z,9.32
2019-03-27T17:51:52.213Z,9.31
2019-03-27T17:54:20.753Z,9.31
2019-03-27T17:56:47.906Z,9.15
2019-03-27T17:59:14.742Z,9.05
2019-03-27T18:01:41.514Z,8.92
2019-03-27T18:04:08.303Z,8.86
2019-03-27T18:06:35.188Z,8.74
2019-03-27T18:09:02.055Z,8.61
2019-03-27T18:11:28.939Z,8.54
2019-03-27T18:13:55.824Z,8.40
2019-03-27T18:16:22.686Z,8.30
2019-03-27T18:18:49.540Z,8.16
2019-03-27T18:21:16.526Z,8.15
2019-03-27T18:23:46.255Z,8.03
2019-03-27T18:26:12.287Z,8.00
2019-03-27T18:28:38.985Z,7.98
2019-03-27T18:31:05.747Z,7.97
2019-03-27T18:33:34.162Z,7.94
2019-03-27T18:36:01.196Z,7.97
2019-03-27T18:38:28.089Z,7.94
2019-03-27T18:40:55.052Z,7.88
2019-03-27T18:43:21.876Z,7.87
2019-03-27T18:45:48.646Z,7.89
2019-03-27T18:48:15.460Z,7.81
2019-03-27T18:50:45.146Z,7.77
2019-03-27T18:53:11.896Z,7.72
2019-03-27T18:55:38.686Z,7.73
2019-03-27T18:58:05.431Z,7.68
2019-03-27T19:00:32.378Z,7.61
2019-03-27T19:02:59.189Z,7.66
2019-03-27T19:05:26.110Z,7.71
2019-03-27T19:07:52.866Z,7.57
2019-03-27T19:10:19.680Z,7.56
2019-03-27T19:12:49.176Z,7.58
2019-03-27T19:15:16.215Z,7.60
2019-03-27T19:17:43.230Z,7.60
2019-03-27T19:20:09.995Z,7.52
2019-03-27T19:22:36.875Z,7.44
2019-03-27T19:25:05.890Z,7.40
2019-03-27T19:27:32.670Z,7.37
2019-03-27T19:29:59.560Z,7.26
2019-03-27T19:32:26.272Z,7.26
2019-03-27T19:34:52.998Z,7.19
2019-03-27T19:37:19.753Z,7.12
2019-03-27T19:39:46.517Z,7.09
2019-03-27T19:42:13.236Z,7.06
2019-03-27T19:44:40.155Z,7.06
2019-03-27T19:47:06.998Z,7.07
2019-03-27T19:49:33.694Z,7.02
2019-03-27T19:52:00.656Z,6.99
2019-03-27T19:54:27.737Z,7.00
2019-03-27T19:56:54.630Z,6.97
2019-03-27T19:59:21.403Z,6.92
2019-03-27T20:01:48.189Z,6.89
2019-03-27T20:04:14.932Z,6.92
2019-03-27T20:06:41.763Z,6.87
2019-03-27T20:09:08.658Z,6.83
2019-03-27T20:11:35.479Z,6.76
2019-03-27T20:14:02.391Z,6.75
2019-03-27T20:16:29.363Z,6.73
2019-03-27T20:18:56.245Z,6.72
2019-03-27T20:21:23.062Z,6.66
2019-03-27T20:23:49.801Z,6.55
2019-03-27T20:26:16.933Z,6.57
2019-03-27T20:28:43.671Z,6.54
2019-03-27T20:31:10.614Z,6.56
2019-03-27T20:33:38.309Z,6.49
2019-03-27T20:36:05.280Z,6.51
2019-03-27T20:38:32.014Z,6.47
2019-03-27T20:40:58.763Z,6.42
2019-03-27T20:43:25.484Z,6.46
2019-03-27T20:45:52.198Z,6.42
2019-03-27T20:48:21.320Z,6.39
2019-03-27T20:50:48.047Z,6.38
2019-03-27T20:53:14.803Z,6.30
2019-03-27T20:55:41.624Z,6.32
2019-03-27T20:58:08.420Z,6.30
2019-03-27T21:00:35.320Z,6.29
2019-03-27T21:03:02.468Z,6.33
2019-03-27T21:05:29.302Z,6.32
2019-03-27T21:07:56.106Z,6.24
2019-03-27T21:10:23.130Z,6.30
2019-03-27T21:12:50.032Z,6.27
2019-03-27T21:15:16.919Z,6.26
2019-03-27T21:17:43.907Z,6.29
2019-03-27T21:20:10.768Z,6.30
2019-03-27T21:22:37.626Z,6.32
2019-03-27T21:25:09.020Z,6.36
2019-03-27T21:27:34.841Z,6.33
2019-03-27T21:30:02.269Z,6.37
2019-03-27T21:32:29.018Z,6.36
2019-03-27T21:34:55.832Z,6.34
2019-03-27T21:37:22.681Z,6.36
2019-03-27T21:39:49.447Z,6.41
2019-03-27T21:42:16.274Z,6.42
2019-03-27T21:44:43.166Z,6.43
2019-03-27T21:47:09.892Z,6.41
2019-03-27T21:49:36.805Z,6.36
2019-03-27T21:52:03.560Z,6.31
2019-03-27T21:54:30.295Z,6.28
2019-03-27T21:56:57.189Z,6.14
2019-03-27T21:59:23.931Z,6.10
2019-03-27T22:01:50.666Z,6.04
2019-03-27T22:04:17.490Z,5.92
2019-03-27T22:06:44.205Z,5.89
2019-03-27T22:09:11.082Z,5.78
2019-03-27T22:11:38.270Z,5.74
2019-03-27T22:14:05.082Z,5.68
2019-03-27T22:16:32.038Z,5.68
2019-03-27T22:18:59.195Z,5.58
2019-03-27T22:21:26.223Z,5.60
2019-03-27T22:23:53.018Z,5.55
2019-03-27T22:26:19.829Z,5.56
2019-03-27T22:28:46.586Z,5.45
2019-03-27T22:31:13.380Z,5.43
2019-03-27T22:33:41.385Z,5.32
2019-03-27T22:36:08.447Z,5.28
2019-03-27T22:38:35.229Z,5.34
2019-03-27T22:41:01.995Z,5.27
2019-03-27T22:43:28.913Z,5.27
2019-03-27T22:45:55.698Z,5.27
2019-03-27T22:48:22.483Z,5.26
2019-03-27T22:50:49.261Z,5.24
2019-03-27T22:53:16.207Z,5.19
2019-03-27T22:55:49.507Z,5.16
2019-03-27T22:58:13.143Z,5.13
2019-03-27T23:00:45.045Z,5.10
2019-03-27T23:03:18.364Z,5.10
2019-03-27T23:05:42.120Z,5.07
2019-03-27T23:08:09.557Z,5.09
2019-03-27T23:10:36.851Z,5.07
2019-03-27T23:13:03.774Z,5.07
2019-03-27T23:15:30.559Z,5.09
2019-03-27T23:17:57.384Z,5.18
2019-03-27T23:20:24.233Z,5.25
2019-03-27T23:22:51.080Z,5.29
2019-03-27T23:25:17.901Z,5.36
2019-03-27T23:27:44.704Z,5.36
2019-03-27T23:30:11.598Z,5.37
2019-03-27T23:32:38.470Z,5.47
2019-03-27T23:35:11.414Z,5.49
2019-03-27T23:37:38.181Z,5.51
2019-03-27T23:40:05.502Z,5.56
2019-03-27T23:42:32.508Z,5.64
2019-03-27T23:44:59.284Z,5.69
2019-03-27T23:47:26.070Z,5.70
2019-03-27T23:49:52.891Z,5.71
2019-03-27T23:52:19.901Z,5.72
2019-03-27T23:54:46.714Z,5.70
2019-03-27T23:57:13.654Z,5.67
2019-03-27T23:59:40.463Z,5.67
